createdAt,value
2022-10-29T04:45:55.252Z,13.45
2022-10-29T04:46:56.206Z,13.44
2022-10-29T04:47:56.667Z,13.42
2022-10-29T04:48:56.288Z,13.38
2022-10-29T04:49:56.193Z,13.33
2022-10-29T04:50:56.170Z,13.36
2022-10-29T04:51:56.152Z,13.30
2022-10-29T04:52:56.161Z,13.28
2022-10-29T04:53:56.137Z,13.26
2022-10-29T04:54:56.127Z,13.23
2022-10-29T04:55:56.113Z,13.25
2022-10-29T04:56:56.105Z,13.23
2022-10-29T04:57:56.464Z,13.25
2022-10-29T04:58:56.089Z,13.28
2022-10-29T04:59:56.070Z,13.26
2022-10-29T05:01:02.860Z,13.28
2022-10-29T05:01:56.088Z,13.32
2022-10-29T05:02:56.424Z,13.30
2022-10-29T05:03:59.064Z,13.30
2022-10-29T05:04:56.071Z,13.30
2022-10-29T05:05:56.037Z,13.32
2022-10-29T05:06:56.039Z,13.32
2022-10-29T05:07:56.033Z,13.29
2022-10-29T05:08:56.007Z,13.29
2022-10-29T05:09:55.993Z,13.29
2022-10-29T05:10:55.989Z,13.29
2022-10-29T05:11:55.970Z,13.30
2022-10-29T05:12:56.317Z,13.32
2022-10-29T05:13:55.956Z,13.33
2022-10-29T05:14:55.942Z,13.36
2022-10-29T05:15:55.928Z,13.38
2022-10-29T05:16:55.973Z,13.41
2022-10-29T05:17:56.410Z,13.39
2022-10-29T05:18:55.902Z,13.38
2022-10-29T05:19:55.890Z,13.36
2022-10-29T05:20:55.900Z,13.33
2022-10-29T05:21:55.870Z,13.29
2022-10-29T05:22:55.871Z,13.29
2022-10-29T05:23:55.844Z,13.28
2022-10-29T05:24:55.835Z,13.29
2022-10-29T05:25:55.823Z,13.28
2022-10-29T05:26:55.817Z,13.29
2022-10-29T05:27:56.180Z,13.30
2022-10-29T05:28:55.793Z,13.32
2022-10-29T05:29:55.785Z,13.29
2022-10-29T05:30:55.771Z,13.26
2022-10-29T05:31:55.762Z,13.30
2022-10-29T05:32:56.037Z,13.39
2022-10-29T05:33:56.160Z,13.44
2022-10-29T05:34:55.728Z,13.45
2022-10-29T05:35:55.718Z,13.44
2022-10-29T05:36:55.721Z,13.41
2022-10-29T05:37:55.705Z,13.33
2022-10-29T05:38:55.682Z,13.32
2022-10-29T05:39:55.672Z,13.26
2022-10-29T05:40:55.665Z,13.22
2022-10-29T05:41:55.647Z,13.20
2022-10-29T05:42:55.944Z,13.17
2022-10-29T05:43:55.626Z,13.12
2022-10-29T05:44:55.640Z,13.12
2022-10-29T05:45:55.606Z,13.10
2022-10-29T05:46:55.607Z,13.15
2022-10-29T05:47:55.664Z,13.22
2022-10-29T05:48:55.575Z,13.17
2022-10-29T05:49:55.556Z,13.14
2022-10-29T05:50:55.551Z,13.14
2022-10-29T05:51:55.545Z,13.12
2022-10-29T05:52:55.924Z,13.11
2022-10-29T05:53:55.546Z,13.11
2022-10-29T05:54:55.511Z,13.08
2022-10-29T05:55:55.496Z,13.05
2022-10-29T05:56:55.484Z,13.05
2022-10-29T05:57:55.479Z,13.03
2022-10-29T05:58:55.488Z,13.03
2022-10-29T05:59:55.450Z,13.04
2022-10-29T06:00:55.450Z,13.07
2022-10-29T06:01:55.588Z,13.05
2022-10-29T06:02:55.881Z,13.07
2022-10-29T06:03:55.429Z,13.07
2022-10-29T06:04:55.401Z,13.08
2022-10-29T06:05:55.389Z,13.10
2022-10-29T06:06:55.410Z,13.11
2022-10-29T06:07:55.697Z,13.14
2022-10-29T06:08:55.372Z,13.14
2022-10-29T06:09:55.355Z,13.17
2022-10-29T06:10:55.337Z,13.19
2022-10-29T06:11:55.315Z,13.20
2022-10-29T06:12:55.323Z,13.22
2022-10-29T06:13:55.313Z,13.19
2022-10-29T06:14:55.299Z,13.25
2022-10-29T06:15:55.274Z,13.23
2022-10-29T06:16:55.271Z,13.23
2022-10-29T06:17:55.474Z,13.23
2022-10-29T06:18:55.290Z,13.23
2022-10-29T06:19:55.230Z,13.26
2022-10-29T06:20:55.225Z,13.26
2022-10-29T06:21:57.888Z,13.28
2022-10-29T06:22:55.442Z,13.32
2022-10-29T06:23:55.210Z,13.36
2022-10-29T06:24:55.193Z,13.39
2022-10-29T06:25:55.169Z,13.44
2022-10-29T06:26:55.168Z,13.44
2022-10-29T06:27:55.144Z,13.42
2022-10-29T06:28:55.151Z,13.41
2022-10-29T06:29:55.121Z,13.42
2022-10-29T06:30:55.116Z,13.44
2022-10-29T06:31:55.108Z,13.42
2022-10-29T06:32:55.478Z,13.44
2022-10-29T06:33:55.094Z,13.45
2022-10-29T06:34:55.082Z,13.46
2022-10-29T06:35:55.058Z,13.49
2022-10-29T06:36:55.059Z,13.48
2022-10-29T06:37:55.505Z,13.51
2022-10-29T06:38:55.051Z,13.55
2022-10-29T06:39:55.021Z,13.59
2022-10-29T06:40:55.011Z,13.63
2022-10-29T06:41:54.997Z,13.66
2022-10-29T06:42:55.000Z,13.67
2022-10-29T06:43:54.989Z,13.71
2022-10-29T06:44:54.964Z,13.81
2022-10-29T06:45:54.949Z,13.91
2022-10-29T06:46:54.960Z,13.99
2022-10-29T06:47:55.281Z,14.09
2022-10-29T06:48:54.942Z,14.17
2022-10-29T06:49:54.909Z,14.18
2022-10-29T06:50:54.908Z,14.18
2022-10-29T06:51:54.887Z,14.21
2022-10-29T06:52:55.350Z,14.21
2022-10-29T06:53:54.867Z,14.24
2022-10-29T06:54:54.868Z,14.27
2022-10-29T06:55:54.847Z,14.29
2022-10-29T06:56:54.848Z,14.32
2022-10-29T06:57:54.841Z,14.32
2022-10-29T06:58:54.830Z,14.35
2022-10-29T06:59:54.805Z,14.33
2022-10-29T07:00:54.932Z,14.36
2022-10-29T07:01:54.865Z,14.37
2022-10-29T07:02:55.067Z,14.40
2022-10-29T07:03:54.757Z,14.40
2022-10-29T07:04:54.769Z,14.42
2022-10-29T07:05:54.739Z,14.45
2022-10-29T07:06:54.740Z,14.45
2022-10-29T07:07:55.006Z,14.46
2022-10-29T07:08:54.724Z,14.50
2022-10-29T07:09:54.713Z,14.51
2022-10-29T07:10:54.713Z,14.57
2022-10-29T07:11:54.689Z,14.57
2022-10-29T07:12:54.678Z,14.60
2022-10-29T07:13:54.689Z,14.62
2022-10-29T07:14:54.660Z,14.65
2022-10-29T07:15:54.641Z,14.69
2022-10-29T07:16:54.628Z,14.72
2022-10-29T07:17:54.934Z,14.73
2022-10-29T07:18:54.623Z,14.75
2022-10-29T07:19:54.591Z,14.77
2022-10-29T07:20:54.587Z,14.81
2022-10-29T07:21:54.577Z,14.88
2022-10-29T07:22:54.566Z,14.94
2022-10-29T07:23:54.566Z,15.02
2022-10-29T07:24:57.171Z,15.07
2022-10-29T07:25:54.533Z,15.13
2022-10-29T07:26:54.528Z,15.17
2022-10-29T07:27:54.844Z,15.20
2022-10-29T07:28:54.525Z,15.25
2022-10-29T07:29:54.499Z,15.28
2022-10-29T07:30:54.479Z,15.29
2022-10-29T07:31:54.478Z,15.31
2022-10-29T07:32:54.459Z,15.34
2022-10-29T07:33:54.461Z,15.35
2022-10-29T07:34:54.446Z,15.38
2022-10-29T07:35:54.425Z,15.38
2022-10-29T07:36:54.420Z,15.44
2022-10-29T07:37:54.698Z,15.49
2022-10-29T07:38:54.417Z,15.50
2022-10-29T07:39:54.382Z,15.53
2022-10-29T07:40:54.389Z,15.59
2022-10-29T07:41:58.184Z,15.60
2022-10-29T07:42:54.864Z,15.67
2022-10-29T07:43:54.357Z,15.67
2022-10-29T07:44:54.339Z,15.72
2022-10-29T07:45:54.329Z,15.78
2022-10-29T07:46:54.320Z,15.84
2022-10-29T07:47:55.695Z,15.89
2022-10-29T07:48:54.312Z,15.92
2022-10-29T07:49:54.304Z,15.97
2022-10-29T07:50:54.278Z,15.96
2022-10-29T07:51:54.271Z,16.07
2022-10-29T07:52:54.577Z,16.08
2022-10-29T07:53:54.260Z,16.15
2022-10-29T07:54:54.234Z,16.20
2022-10-29T07:55:54.213Z,16.21
2022-10-29T07:56:54.213Z,16.21
2022-10-29T07:57:54.522Z,16.25
2022-10-29T07:58:54.204Z,16.30
2022-10-29T07:59:54.178Z,16.31
2022-10-29T08:00:54.251Z,16.35
2022-10-29T08:01:54.318Z,16.39
2022-10-29T08:02:54.151Z,16.41
2022-10-29T08:03:54.150Z,16.45
2022-10-29T08:04:54.130Z,16.53
2022-10-29T08:05:56.724Z,16.67
2022-10-29T08:06:54.112Z,16.75
2022-10-29T08:07:54.463Z,16.82
2022-10-29T08:08:54.105Z,16.85
2022-10-29T08:09:54.074Z,16.83
2022-10-29T08:10:54.073Z,16.79
2022-10-29T08:11:54.047Z,16.75
2022-10-29T08:12:54.331Z,16.70
2022-10-29T08:13:54.031Z,16.79
2022-10-29T08:14:54.021Z,16.82
2022-10-29T08:15:54.008Z,16.89
2022-10-29T08:16:54.006Z,16.93
2022-10-29T08:17:54.010Z,16.97
2022-10-29T08:18:53.980Z,17.01
2022-10-29T08:19:53.973Z,17.01
2022-10-29T08:20:53.980Z,17.07
2022-10-29T08:21:53.945Z,17.11
2022-10-29T08:22:54.341Z,17.12
2022-10-29T08:23:53.918Z,17.18
2022-10-29T08:24:53.920Z,17.23
2022-10-29T08:25:53.902Z,17.31
2022-10-29T08:26:53.910Z,17.40
2022-10-29T08:28:53.883Z,17.52
2022-10-29T08:29:53.857Z,17.58
2022-10-29T08:30:53.861Z,17.66
2022-10-29T08:31:53.837Z,17.81
2022-10-29T08:32:54.220Z,17.90
2022-10-29T08:33:53.814Z,17.90
2022-10-29T08:34:53.818Z,17.84
2022-10-29T08:35:53.791Z,17.81
2022-10-29T08:36:53.792Z,17.77
2022-10-29T08:37:53.802Z,17.77
2022-10-29T08:38:53.768Z,17.79
2022-10-29T08:39:53.757Z,17.84
2022-10-29T08:40:53.753Z,17.92
2022-10-29T08:41:53.740Z,17.97
2022-10-29T08:42:54.068Z,18.03
2022-10-29T08:43:53.790Z,18.12
2022-10-29T08:44:53.699Z,18.14
2022-10-29T08:45:53.691Z,18.15
2022-10-29T08:46:53.680Z,18.25
2022-10-29T08:47:54.027Z,18.33
2022-10-29T08:48:53.660Z,18.39
2022-10-29T08:49:53.643Z,18.41
2022-10-29T08:50:53.633Z,18.41
2022-10-29T08:51:53.622Z,18.41
2022-10-29T08:53:19.410Z,18.45
2022-10-29T08:54:25.006Z,18.51
2022-10-29T08:54:53.602Z,18.57
2022-10-29T08:55:53.580Z,18.57
2022-10-29T08:56:53.587Z,18.60
2022-10-29T08:57:53.854Z,18.63
2022-10-29T08:58:53.563Z,18.67
2022-10-29T08:59:53.603Z,18.70
2022-10-29T09:00:53.585Z,18.69
2022-10-29T09:01:53.932Z,18.67
2022-10-29T09:02:53.755Z,18.67
2022-10-29T09:03:53.497Z,18.69
2022-10-29T09:04:53.488Z,18.60
2022-10-29T09:05:53.494Z,18.57
2022-10-29T09:06:53.470Z,18.55
2022-10-29T09:07:55.232Z,18.50
2022-10-29T09:08:53.441Z,18.47
2022-10-29T09:09:53.445Z,18.48
2022-10-29T09:10:53.417Z,18.45
2022-10-29T09:11:53.411Z,18.48
2022-10-29T09:12:53.741Z,18.45
2022-10-29T09:13:53.395Z,18.50
2022-10-29T09:14:53.377Z,18.57
2022-10-29T09:15:57.213Z,18.84
2022-10-29T09:16:53.362Z,19.02
2022-10-29T09:17:53.611Z,19.13
2022-10-29T09:18:53.333Z,19.39
2022-10-29T09:19:53.332Z,19.69
2022-10-29T09:20:53.313Z,19.74
2022-10-29T09:21:53.311Z,19.98
2022-10-29T09:22:53.289Z,20.51
2022-10-29T09:23:53.308Z,20.92
2022-10-29T09:24:53.272Z,21.09
2022-10-29T09:25:53.265Z,21.35
2022-10-29T09:26:53.257Z,21.68
2022-10-29T09:27:53.504Z,21.67
2022-10-29T09:28:53.233Z,21.56
2022-10-29T09:29:53.222Z,21.34
2022-10-29T09:30:53.216Z,21.25
2022-10-29T09:31:53.203Z,21.27
2022-10-29T09:32:53.218Z,21.34
2022-10-29T09:33:55.345Z,21.24
2022-10-29T09:34:53.173Z,21.16
2022-10-29T09:35:53.163Z,20.97
2022-10-29T09:36:53.157Z,20.87
2022-10-29T09:37:53.183Z,20.87
2022-10-29T09:38:53.137Z,20.80
2022-10-29T09:39:53.120Z,20.66
2022-10-29T09:40:53.118Z,20.73
2022-10-29T09:41:53.104Z,20.95
2022-10-29T09:42:53.109Z,20.99
2022-10-29T09:43:53.083Z,21.04
2022-10-29T09:44:53.065Z,20.87
2022-10-29T09:45:53.065Z,20.84
2022-10-29T09:46:53.046Z,20.77
2022-10-29T09:47:53.245Z,20.66
2022-10-29T09:48:53.103Z,20.91
2022-10-29T09:49:53.022Z,21.43
2022-10-29T09:50:53.008Z,22.12
2022-10-29T09:51:52.998Z,22.20
2022-10-29T09:52:53.123Z,22.00
2022-10-29T09:53:52.987Z,21.77
2022-10-29T09:54:52.969Z,21.53
2022-10-29T09:55:52.955Z,21.35
2022-10-29T09:56:54.864Z,21.14
2022-10-29T09:57:52.963Z,21.01
2022-10-29T09:58:52.915Z,21.03
2022-10-29T09:59:52.920Z,21.22
2022-10-29T10:00:52.892Z,21.27
2022-10-29T10:01:52.934Z,21.43
2022-10-29T10:02:52.937Z,21.43
2022-10-29T10:03:52.995Z,21.49
2022-10-29T10:04:52.861Z,21.82
2022-10-29T10:05:52.851Z,21.64
2022-10-29T10:06:52.846Z,21.37
2022-10-29T10:07:52.983Z,21.44
2022-10-29T10:08:52.823Z,21.27
2022-10-29T10:09:52.805Z,21.29
2022-10-29T10:10:52.798Z,21.38
2022-10-29T10:11:52.787Z,21.28
2022-10-29T10:12:52.797Z,21.24
2022-10-29T10:13:52.777Z,21.35
2022-10-29T10:14:52.753Z,21.52
2022-10-29T10:15:52.740Z,21.44
2022-10-29T10:16:52.734Z,21.43
2022-10-29T10:17:52.715Z,21.43
2022-10-29T10:18:52.721Z,21.58
2022-10-29T10:19:52.698Z,21.84
2022-10-29T10:20:52.679Z,22.40
2022-10-29T10:21:52.704Z,22.45
2022-10-29T10:22:52.662Z,22.91
2022-10-29T10:23:52.694Z,23.13
2022-10-29T10:24:52.648Z,23.80
2022-10-29T10:25:52.721Z,24.05
2022-10-29T10:26:52.617Z,23.25
2022-10-29T10:27:52.614Z,23.02
2022-10-29T10:28:52.604Z,23.25
2022-10-29T10:29:52.587Z,23.35
2022-10-29T10:30:52.571Z,23.38
2022-10-29T10:31:52.572Z,23.38
2022-10-29T10:32:52.584Z,22.98
2022-10-29T10:33:52.552Z,22.82
2022-10-29T10:34:52.535Z,22.95
2022-10-29T10:35:52.540Z,23.32
2022-10-29T10:36:52.508Z,23.25
2022-10-29T10:37:52.505Z,23.53
2022-10-29T10:38:52.509Z,23.50
2022-10-29T10:39:52.537Z,22.88
2022-10-29T10:40:52.462Z,23.25
2022-10-29T10:41:52.460Z,23.32
2022-10-29T10:42:52.458Z,23.07
2022-10-29T10:43:52.432Z,23.10
2022-10-29T10:44:52.425Z,23.38
2022-10-29T10:45:52.418Z,23.54
2022-10-29T10:46:52.400Z,22.77
2022-10-29T10:47:52.414Z,22.51
2022-10-29T10:48:52.385Z,21.91
2022-10-29T10:49:52.376Z,21.90
2022-10-29T10:50:52.358Z,21.52
2022-10-29T10:51:52.358Z,21.31
2022-10-29T10:52:52.351Z,21.38
2022-10-29T10:53:52.391Z,21.42
2022-10-29T10:54:52.343Z,21.42
2022-10-29T10:55:52.318Z,21.34
2022-10-29T10:56:52.306Z,21.37
2022-10-29T10:57:52.330Z,21.50
2022-10-29T10:58:52.288Z,21.43
2022-10-29T10:59:52.285Z,21.58
2022-10-29T11:00:59.864Z,21.74
2022-10-29T11:01:52.405Z,22.31
2022-10-29T11:02:52.229Z,23.36
2022-10-29T11:03:52.194Z,24.02
2022-10-29T11:04:52.193Z,24.10
2022-10-29T11:05:52.194Z,24.40
2022-10-29T11:06:52.168Z,24.62
2022-10-29T11:07:52.188Z,25.13
2022-10-29T11:08:52.162Z,24.52
2022-10-29T11:09:52.187Z,24.24
2022-10-29T11:10:52.184Z,23.39
2022-10-29T11:11:57.928Z,23.13
2022-10-29T11:12:52.125Z,22.98
2022-10-29T11:13:52.176Z,22.43
2022-10-29T11:14:52.079Z,21.88
2022-10-29T11:15:52.121Z,21.72
2022-10-29T11:16:52.090Z,21.44
2022-10-29T11:17:54.283Z,21.31
2022-10-29T11:18:52.032Z,21.32
2022-10-29T11:19:52.070Z,21.32
2022-10-29T11:20:52.045Z,21.22
2022-10-29T11:21:52.023Z,21.40
2022-10-29T11:22:52.015Z,21.68
2022-10-29T11:23:51.980Z,21.92
2022-10-29T11:24:52.054Z,21.88
2022-10-29T11:25:51.981Z,22.25
2022-10-29T11:26:51.961Z,22.65
2022-10-29T11:27:52.005Z,22.65
2022-10-29T11:28:51.935Z,22.80
2022-10-29T11:29:51.936Z,23.27
2022-10-29T11:30:51.913Z,23.16
2022-10-29T11:31:51.929Z,23.20
2022-10-29T11:32:51.912Z,23.98
2022-10-29T11:33:51.995Z,24.96
2022-10-29T11:34:51.879Z,24.88
2022-10-29T11:35:53.970Z,25.02
2022-10-29T11:36:51.855Z,24.42
2022-10-29T11:37:51.900Z,24.88
2022-10-29T11:38:51.824Z,25.20
2022-10-29T11:39:51.842Z,25.90
2022-10-29T11:40:51.803Z,26.44
2022-10-29T11:41:51.816Z,26.01
2022-10-29T11:42:51.815Z,25.75
2022-10-29T11:43:51.822Z,25.33
2022-10-29T11:44:51.785Z,26.07
2022-10-29T11:45:51.752Z,25.98
2022-10-29T11:46:51.743Z,24.98
2022-10-29T11:47:51.781Z,24.84
2022-10-29T11:48:51.736Z,24.43
2022-10-29T11:49:51.712Z,24.35
2022-10-29T11:50:51.718Z,24.67
2022-10-29T11:51:51.785Z,25.13
2022-10-29T11:52:51.734Z,25.82
2022-10-29T11:53:51.719Z,26.60
2022-10-29T11:54:51.670Z,26.18
2022-10-29T11:55:51.702Z,26.51
2022-10-29T11:56:51.726Z,27.10
2022-10-29T11:57:51.689Z,27.34
2022-10-29T11:58:51.614Z,27.12
2022-10-29T11:59:51.618Z,26.33
2022-10-29T12:00:51.604Z,26.89
2022-10-29T12:01:51.698Z,26.72
2022-10-29T12:02:51.617Z,26.54
2022-10-29T12:03:51.655Z,25.83
2022-10-29T12:04:51.671Z,26.13
2022-10-29T12:05:51.547Z,26.47
2022-10-29T12:06:51.529Z,25.90
2022-10-29T12:07:51.582Z,25.91
2022-10-29T12:08:51.512Z,25.75
2022-10-29T12:09:51.541Z,25.90
2022-10-29T12:10:51.499Z,26.50
2022-10-29T12:11:51.485Z,26.15
2022-10-29T12:12:51.535Z,26.07
2022-10-29T12:13:51.478Z,26.33
2022-10-29T12:14:51.511Z,26.01
2022-10-29T12:15:51.447Z,25.73
2022-10-29T12:16:51.477Z,26.12
2022-10-29T12:17:51.496Z,26.57
2022-10-29T12:18:51.408Z,25.97
2022-10-29T12:19:51.454Z,25.73
2022-10-29T12:20:51.405Z,26.07
2022-10-29T12:21:51.379Z,25.92
2022-10-29T12:22:51.408Z,25.55
2022-10-29T12:23:51.357Z,26.06
2022-10-29T12:24:51.362Z,26.65
2022-10-29T12:25:51.413Z,26.75
2022-10-29T12:26:51.343Z,26.73
2022-10-29T12:27:51.339Z,26.47
2022-10-29T12:28:51.312Z,26.12
2022-10-29T12:29:51.355Z,25.75
2022-10-29T12:30:51.299Z,25.70
2022-10-29T12:31:51.273Z,26.54
2022-10-29T12:32:51.290Z,27.18
2022-10-29T12:33:51.282Z,27.46
2022-10-29T12:34:51.245Z,27.46
2022-10-29T12:35:51.309Z,27.54
2022-10-29T12:36:53.434Z,27.29
2022-10-29T12:37:51.216Z,26.82
2022-10-29T12:38:51.204Z,26.73
2022-10-29T12:39:51.185Z,26.20
2022-10-29T12:40:51.178Z,26.21
2022-10-29T12:41:51.173Z,26.28
2022-10-29T12:42:51.150Z,26.15
2022-10-29T12:43:51.174Z,26.40
2022-10-29T12:44:51.128Z,26.47
2022-10-29T12:46:14.718Z,26.54
2022-10-29T12:46:51.115Z,26.77
2022-10-29T12:47:51.104Z,26.32
2022-10-29T12:48:51.102Z,25.92
2022-10-29T12:49:51.083Z,25.79
2022-10-29T12:50:51.067Z,26.12
2022-10-29T12:51:51.120Z,26.23
2022-10-29T12:52:51.063Z,26.40
2022-10-29T12:53:51.086Z,26.62
2022-10-29T12:54:51.022Z,25.79
2022-10-29T12:55:51.018Z,25.21
2022-10-29T12:56:51.004Z,24.87
2022-10-29T12:57:51.017Z,24.80
2022-10-29T12:58:50.992Z,24.61
2022-10-29T12:59:50.977Z,24.47
2022-10-29T13:00:51.039Z,24.34
2022-10-29T13:02:11.139Z,24.15
2022-10-29T13:02:51.131Z,23.98
2022-10-29T13:03:50.939Z,23.75
2022-10-29T13:04:50.920Z,23.60
2022-10-29T13:05:50.912Z,23.65
2022-10-29T13:06:50.898Z,23.70
2022-10-29T13:07:50.906Z,23.50
2022-10-29T13:08:50.889Z,23.40
2022-10-29T13:09:50.870Z,23.54
2022-10-29T13:10:50.856Z,23.60
2022-10-29T13:11:50.873Z,23.58
2022-10-29T13:12:50.843Z,23.36
2022-10-29T13:13:51.367Z,23.32
2022-10-29T13:14:50.854Z,23.28
2022-10-29T13:15:50.803Z,23.20
2022-10-29T13:16:50.802Z,23.17
2022-10-29T13:17:50.785Z,23.20
2022-10-29T13:18:50.790Z,23.25
2022-10-29T13:19:50.767Z,23.28
2022-10-29T13:20:50.754Z,23.20
2022-10-29T13:21:50.741Z,23.15
2022-10-29T13:22:50.740Z,23.02
2022-10-29T13:23:50.731Z,22.98
2022-10-29T13:24:50.714Z,23.00
2022-10-29T13:25:50.704Z,23.01
2022-10-29T13:26:50.692Z,22.97
2022-10-29T13:27:50.698Z,22.92
2022-10-29T13:28:50.735Z,22.77
2022-10-29T13:29:50.653Z,22.77
2022-10-29T13:30:50.650Z,22.79
2022-10-29T13:31:50.634Z,22.88
2022-10-29T13:32:50.642Z,23.02
2022-10-29T13:33:50.617Z,23.15
2022-10-29T13:34:50.610Z,23.23
2022-10-29T13:35:50.593Z,23.23
2022-10-29T13:36:50.594Z,23.16
2022-10-29T13:37:50.587Z,23.12
2022-10-29T13:39:05.645Z,23.33
2022-10-29T13:39:50.574Z,23.53
2022-10-29T13:40:50.545Z,23.38
2022-10-29T13:41:50.532Z,23.28
2022-10-29T13:42:50.559Z,23.25
2022-10-29T13:43:50.509Z,23.27
2022-10-29T13:44:50.511Z,23.31
2022-10-29T13:45:50.495Z,23.13
2022-10-29T13:46:50.482Z,23.15
2022-10-29T13:47:50.480Z,23.10
2022-10-29T13:48:50.464Z,23.17
2022-10-29T13:49:50.457Z,23.28
2022-10-29T13:50:50.441Z,23.10
2022-10-29T13:51:50.462Z,23.09
2022-10-29T13:52:50.431Z,23.04
2022-10-29T13:53:50.406Z,23.09
2022-10-29T13:54:50.406Z,22.97
2022-10-29T13:55:50.388Z,23.00
2022-10-29T13:56:50.377Z,22.98
2022-10-29T13:57:50.366Z,23.10
2022-10-29T13:58:50.384Z,23.15
2022-10-29T13:59:50.345Z,23.17
2022-10-29T14:00:50.384Z,23.10
2022-10-29T14:01:50.492Z,23.10
2022-10-29T14:02:50.330Z,23.16
2022-10-29T14:03:50.303Z,23.20
2022-10-29T14:04:50.292Z,23.10
2022-10-29T14:05:50.281Z,23.15
2022-10-29T14:06:50.271Z,23.13
2022-10-29T14:07:50.282Z,23.10
2022-10-29T14:08:50.320Z,23.07
2022-10-29T14:09:50.238Z,22.98
2022-10-29T14:10:50.238Z,22.98
2022-10-29T14:11:50.219Z,22.90
2022-10-29T14:12:50.228Z,22.80
2022-10-29T14:13:50.192Z,22.70
2022-10-29T14:14:50.190Z,22.60
2022-10-29T14:15:50.173Z,22.57
2022-10-29T14:16:50.169Z,22.55
2022-10-29T14:17:50.178Z,22.55
2022-10-29T14:18:50.154Z,22.51
2022-10-29T14:19:50.136Z,22.52
2022-10-29T14:20:50.130Z,22.49
2022-10-29T14:21:50.113Z,22.40
2022-10-29T14:22:50.133Z,22.39
2022-10-29T14:23:50.095Z,22.43
2022-10-29T14:24:50.085Z,22.43
2022-10-29T14:25:50.070Z,22.37
2022-10-29T14:26:50.078Z,22.42
2022-10-29T14:27:50.065Z,22.55
2022-10-29T14:28:50.044Z,22.64
2022-10-29T14:29:53.039Z,22.61
2022-10-29T14:30:50.028Z,22.58
2022-10-29T14:31:50.003Z,22.61
2022-10-29T14:32:50.036Z,22.57
2022-10-29T14:33:49.983Z,22.67
2022-10-29T14:34:49.978Z,22.73
2022-10-29T14:35:49.966Z,22.77
2022-10-29T14:36:49.960Z,22.77
2022-10-29T14:37:49.961Z,22.77
2022-10-29T14:38:49.936Z,22.62
2022-10-29T14:39:57.877Z,22.65
2022-10-29T14:40:49.921Z,22.65
2022-10-29T14:41:49.902Z,22.60
2022-10-29T14:42:49.908Z,22.58
2022-10-29T14:43:49.890Z,22.45
2022-10-29T14:44:49.872Z,22.36
2022-10-29T14:45:49.863Z,22.30
2022-10-29T14:46:49.851Z,22.17
2022-10-29T14:47:49.853Z,22.03
2022-10-29T14:48:49.834Z,21.90
2022-10-29T14:49:49.824Z,21.84
2022-10-29T14:50:49.814Z,21.80
2022-10-29T14:51:49.796Z,21.84
2022-10-29T14:52:53.514Z,21.91
2022-10-29T14:53:49.809Z,21.88
2022-10-29T14:54:49.770Z,21.91
2022-10-29T14:55:49.754Z,21.83
2022-10-29T14:56:49.772Z,21.67
2022-10-29T14:57:49.752Z,21.59
2022-10-29T14:58:49.743Z,21.54
2022-10-29T14:59:49.709Z,21.38
2022-10-29T15:00:49.755Z,21.32
2022-10-29T15:01:50.355Z,21.31
2022-10-29T15:02:49.950Z,21.31
2022-10-29T15:03:49.670Z,21.27
2022-10-29T15:04:49.669Z,21.29
2022-10-29T15:05:49.702Z,21.32
2022-10-29T15:06:49.660Z,21.34
2022-10-29T15:07:49.646Z,21.43
2022-10-29T15:08:49.623Z,21.50
2022-10-29T15:09:49.604Z,21.49
2022-10-29T15:10:49.607Z,21.43
2022-10-29T15:11:49.585Z,21.42
2022-10-29T15:12:49.590Z,21.35
2022-10-29T15:13:49.566Z,21.31
2022-10-29T15:14:49.560Z,21.25
2022-10-29T15:15:49.545Z,21.21
2022-10-29T15:16:49.553Z,21.21
2022-10-29T15:17:49.558Z,21.25
2022-10-29T15:18:49.541Z,21.19
2022-10-29T15:19:49.522Z,21.22
2022-10-29T15:20:49.497Z,21.16
2022-10-29T15:21:49.482Z,21.09
2022-10-29T15:22:49.513Z,20.99
2022-10-29T15:23:49.493Z,20.98
2022-10-29T15:24:49.461Z,20.97
2022-10-29T15:25:49.454Z,20.92
2022-10-29T15:26:49.433Z,20.94
2022-10-29T15:27:49.418Z,20.85
2022-10-29T15:28:49.422Z,20.79
2022-10-29T15:29:49.403Z,20.72
2022-10-29T15:30:49.408Z,20.70
2022-10-29T15:31:49.415Z,20.64
2022-10-29T15:32:49.370Z,20.51
2022-10-29T15:33:49.392Z,20.43
2022-10-29T15:34:49.352Z,20.38
2022-10-29T15:35:49.346Z,20.28
2022-10-29T15:36:49.367Z,20.18
2022-10-29T15:37:49.318Z,20.10
2022-10-29T15:38:52.411Z,20.02
2022-10-29T15:39:49.293Z,19.95
2022-10-29T15:40:49.328Z,19.91
2022-10-29T15:41:49.268Z,19.80
2022-10-29T15:42:49.265Z,19.76
2022-10-29T15:43:49.250Z,19.65
2022-10-29T15:44:49.242Z,19.54
2022-10-29T15:45:49.227Z,19.48
2022-10-29T15:46:49.231Z,19.36
2022-10-29T15:47:49.207Z,19.29
2022-10-29T15:48:49.201Z,19.18
2022-10-29T15:49:49.187Z,19.11
2022-10-29T15:50:49.191Z,19.08
2022-10-29T15:51:49.166Z,19.04
2022-10-29T15:52:49.159Z,18.95
2022-10-29T15:53:49.140Z,18.91
2022-10-29T15:54:49.131Z,18.82
2022-10-29T15:55:49.156Z,18.78
2022-10-29T15:56:49.110Z,18.72
2022-10-29T15:57:49.098Z,18.75
2022-10-29T15:58:49.090Z,18.82
2022-10-29T15:59:49.144Z,18.98
2022-10-29T16:00:49.170Z,19.02
2022-10-29T16:01:49.144Z,19.08
2022-10-29T16:02:49.110Z,19.07
2022-10-29T16:03:49.047Z,19.11
2022-10-29T16:04:49.361Z,19.11
2022-10-29T16:05:49.026Z,19.21
2022-10-29T16:06:48.999Z,19.16
2022-10-29T16:07:49.032Z,19.10
2022-10-29T16:08:48.982Z,19.00
2022-10-29T16:09:48.964Z,18.91
2022-10-29T16:10:49.011Z,18.76
2022-10-29T16:11:48.939Z,18.66
2022-10-29T16:12:48.933Z,18.60
2022-10-29T16:13:54.809Z,18.57
2022-10-29T16:14:48.919Z,18.51
2022-10-29T16:15:48.914Z,18.50
2022-10-29T16:16:48.895Z,18.37
2022-10-29T16:17:48.876Z,18.51
2022-10-29T16:18:48.871Z,18.57
2022-10-29T16:19:48.853Z,18.76
2022-10-29T16:20:48.860Z,18.87
2022-10-29T16:21:48.831Z,18.84
2022-10-29T16:22:48.823Z,18.81
2022-10-29T16:23:48.816Z,18.78
2022-10-29T16:24:48.803Z,18.82
2022-10-29T16:25:48.802Z,18.80
2022-10-29T16:26:48.795Z,18.73
2022-10-29T16:27:48.774Z,18.69
2022-10-29T16:28:48.764Z,18.69
2022-10-29T16:29:48.744Z,18.69
2022-10-29T16:30:48.749Z,18.66
2022-10-29T16:31:48.735Z,18.65
2022-10-29T16:32:48.765Z,18.60
2022-10-29T16:33:48.705Z,18.73
2022-10-29T16:34:48.702Z,18.84
2022-10-29T16:35:48.701Z,18.88
2022-10-29T16:36:48.680Z,18.85
2022-10-29T16:37:48.670Z,18.84
2022-10-29T16:38:48.665Z,18.75
2022-10-29T16:39:48.646Z,18.65
2022-10-29T16:40:48.659Z,18.58
2022-10-29T16:41:48.621Z,18.65
2022-10-29T16:42:48.620Z,18.78
2022-10-29T16:43:48.600Z,18.87
2022-10-29T16:44:48.598Z,18.84
2022-10-29T16:45:48.657Z,18.94
2022-10-29T16:46:48.588Z,18.99
2022-10-29T16:47:48.563Z,19.08
2022-10-29T16:48:48.555Z,19.14
2022-10-29T16:49:48.541Z,19.33
2022-10-29T16:50:48.540Z,19.36
2022-10-29T16:51:48.547Z,19.41
2022-10-29T16:52:50.236Z,19.39
2022-10-29T16:53:48.502Z,19.41
2022-10-29T16:54:48.496Z,19.56
2022-10-29T16:55:48.485Z,19.68
2022-10-29T16:56:48.492Z,19.77
2022-10-29T16:57:48.461Z,19.80
2022-10-29T16:58:48.449Z,19.71
2022-10-29T16:59:48.444Z,19.74
2022-10-29T17:00:48.598Z,19.86
2022-10-29T17:01:54.474Z,19.80
2022-10-29T17:02:48.446Z,19.65
2022-10-29T17:03:48.458Z,19.56
2022-10-29T17:04:48.444Z,19.66
2022-10-29T17:05:48.403Z,19.80
2022-10-29T17:06:48.419Z,19.88
2022-10-29T17:07:48.383Z,19.96
2022-10-29T17:08:48.381Z,20.08
2022-10-29T17:09:48.369Z,20.08
2022-10-29T17:10:48.369Z,20.10
2022-10-29T17:11:48.379Z,20.08
2022-10-29T17:12:48.373Z,20.02
2022-10-29T17:13:48.321Z,19.99
2022-10-29T17:14:48.352Z,19.99
2022-10-29T17:15:48.300Z,20.02
2022-10-29T17:16:48.328Z,19.99
2022-10-29T17:17:48.275Z,20.01
2022-10-29T17:18:48.282Z,20.01
2022-10-29T17:19:48.265Z,19.98
2022-10-29T17:20:48.249Z,19.98
2022-10-29T17:21:48.271Z,19.98
2022-10-29T17:22:48.243Z,20.02
2022-10-29T17:23:48.230Z,20.02
2022-10-29T17:24:48.207Z,19.94
2022-10-29T17:25:48.253Z,19.88
2022-10-29T17:26:48.195Z,19.86
2022-10-29T17:27:48.179Z,19.91
2022-10-29T17:28:48.162Z,19.88
2022-10-29T17:29:48.149Z,19.84
2022-10-29T17:30:48.135Z,19.84
2022-10-29T17:31:48.151Z,19.80
2022-10-29T17:32:48.117Z,19.69
2022-10-29T17:33:48.119Z,19.56
2022-10-29T17:34:48.099Z,19.50
2022-10-29T17:35:48.090Z,19.39
2022-10-29T17:36:48.090Z,19.29
2022-10-29T17:37:48.072Z,19.21
2022-10-29T17:38:48.062Z,19.11